createdAt,value
2024-01-24T00:02:02.637Z,100313.72
2024-01-24T00:04:29.502Z,100329.19
2024-01-24T00:07:22.613Z,100287.53
2024-01-24T00:09:49.410Z,100291.00
2024-01-24T00:12:15.980Z,100303.00
2024-01-24T00:14:42.950Z,100303.59
2024-01-24T00:17:09.622Z,100330.28
2024-01-24T00:19:36.307Z,100317.19
2024-01-24T00:22:04.160Z,100300.16
2024-01-24T00:24:30.834Z,100283.09
2024-01-24T00:26:57.596Z,100288.13
2024-01-24T00:29:24.097Z,100275.66
2024-01-24T00:31:50.647Z,100255.94
2024-01-24T00:34:17.277Z,100251.97
2024-01-24T00:36:43.884Z,100250.84
2024-01-24T00:39:10.698Z,100227.34
2024-01-24T00:41:37.281Z,100240.28
2024-01-24T00:44:03.923Z,100250.53
2024-01-24T00:46:30.483Z,100224.66
2024-01-24T00:48:57.042Z,100229.34
2024-01-24T00:51:23.955Z,100235.19
2024-01-24T00:53:55.031Z,100213.56
2024-01-24T00:56:21.890Z,100213.38
2024-01-24T00:58:48.342Z,100219.53
2024-01-24T01:01:14.895Z,100231.50
2024-01-24T01:03:42.504Z,100230.88
2024-01-24T01:06:09.044Z,100222.03
2024-01-24T01:08:35.648Z,100235.91
2024-01-24T01:11:02.366Z,100250.44
2024-01-24T01:13:28.986Z,100237.78
2024-01-24T01:15:55.522Z,100228.59
2024-01-24T01:18:22.121Z,100261.78
2024-01-24T01:20:48.820Z,100233.06
2024-01-24T01:23:15.349Z,100229.84
2024-01-24T01:25:41.850Z,100231.25
2024-01-24T01:28:08.326Z,100214.97
2024-01-24T01:30:35.658Z,100215.59
2024-01-24T01:33:02.249Z,100223.16
2024-01-24T01:35:28.801Z,100214.63
2024-01-24T01:37:55.318Z,100193.91
2024-01-24T01:40:21.880Z,100200.03
2024-01-24T01:42:48.469Z,100189.13
2024-01-24T01:45:15.199Z,100184.56
2024-01-24T01:47:42.306Z,100180.84
2024-01-24T01:50:15.147Z,100155.06
2024-01-24T01:52:43.645Z,100152.53
2024-01-24T01:55:12.849Z,100151.84
2024-01-24T01:57:42.976Z,100148.22
2024-01-24T02:00:11.520Z,100161.28
2024-01-24T02:02:38.156Z,100136.66
2024-01-24T02:05:05.319Z,100137.56
2024-01-24T02:07:31.925Z,100135.28
2024-01-24T02:09:58.582Z,100130.22
2024-01-24T02:12:25.184Z,100126.88
2024-01-24T02:14:52.317Z,100116.75
2024-01-24T02:17:18.942Z,100118.44
2024-01-24T02:19:45.549Z,100107.03
2024-01-24T02:22:12.038Z,100107.34
2024-01-24T02:24:38.609Z,100099.88
2024-01-24T02:27:05.378Z,100109.03
2024-01-24T02:29:31.868Z,100104.09
2024-01-24T02:31:58.390Z,100082.91
2024-01-24T02:34:24.987Z,100094.88
2024-01-24T02:36:51.586Z,100086.13
2024-01-24T02:39:18.927Z,100085.34
2024-01-24T02:41:45.608Z,100066.31
2024-01-24T02:44:12.067Z,100078.78
2024-01-24T02:46:38.624Z,100066.88
2024-01-24T02:49:05.278Z,100067.47
2024-01-24T02:51:32.255Z,100056.59
2024-01-24T02:53:58.785Z,100053.03
2024-01-24T02:56:25.401Z,100063.16
2024-01-24T02:58:51.903Z,100051.00
2024-01-24T03:01:18.549Z,100045.09
2024-01-24T03:03:45.255Z,100034.56
2024-01-24T03:06:12.337Z,100051.66
2024-01-24T03:08:58.569Z,100042.91
2024-01-24T03:11:25.452Z,100035.94
2024-01-24T03:13:51.950Z,100022.47
2024-01-24T03:16:18.817Z,100036.28
2024-01-24T03:18:45.654Z,100031.41
2024-01-24T03:21:16.264Z,100010.47
2024-01-24T03:23:43.206Z,100001.44
2024-01-24T03:26:09.883Z,99985.59
2024-01-24T03:28:37.004Z,100000.72
2024-01-24T03:31:03.981Z,99997.88
2024-01-24T03:33:30.841Z,99990.69
2024-01-24T03:35:57.673Z,100001.06
2024-01-24T03:38:24.161Z,100020.31
2024-01-24T03:40:51.282Z,100017.75
2024-01-24T03:43:17.773Z,100009.69
2024-01-24T03:45:45.060Z,100004.84
2024-01-24T03:48:11.871Z,100005.41
2024-01-24T03:50:39.199Z,100024.38
2024-01-24T03:53:06.209Z,99994.09
2024-01-24T03:55:33.337Z,100018.47
2024-01-24T03:57:59.979Z,99990.66
2024-01-24T04:00:28.944Z,99999.94
2024-01-24T04:02:55.655Z,100005.66
2024-01-24T04:05:22.138Z,100013.91
2024-01-24T04:07:48.667Z,100019.00
2024-01-24T04:10:16.683Z,100015.63
2024-01-24T04:12:43.577Z,100047.59
2024-01-24T04:15:10.291Z,100034.59
2024-01-24T04:17:36.908Z,100051.00
2024-01-24T04:20:03.717Z,100034.69
2024-01-24T04:22:30.378Z,100037.59
2024-01-24T04:24:58.624Z,100042.31
2024-01-24T04:27:25.250Z,100037.69
2024-01-24T04:29:51.761Z,100006.22
2024-01-24T04:32:18.308Z,100008.88
2024-01-24T04:34:45.815Z,100016.47
2024-01-24T04:37:12.599Z,100007.41
2024-01-24T04:39:39.092Z,100012.34
2024-01-24T04:42:12.145Z,100024.31
2024-01-24T04:44:43.352Z,100007.19
2024-01-24T04:47:10.045Z,100013.47
2024-01-24T04:49:44.546Z,100006.97
2024-01-24T04:52:12.628Z,100004.41
2024-01-24T04:54:39.276Z,99991.16
2024-01-24T04:57:05.857Z,100003.59
2024-01-24T04:59:39.022Z,100010.03
2024-01-24T05:02:12.806Z,100015.59
2024-01-24T05:04:39.418Z,100018.72
2024-01-24T05:07:05.906Z,100013.25
2024-01-24T05:09:32.433Z,100015.31
2024-01-24T05:11:58.944Z,100015.88
2024-01-24T05:14:25.389Z,100024.44
2024-01-24T05:16:52.026Z,100017.72
2024-01-24T05:19:18.694Z,100055.53
2024-01-24T05:21:45.337Z,100057.44
2024-01-24T05:24:12.011Z,100068.88
2024-01-24T05:26:38.829Z,100068.38
2024-01-24T05:29:07.375Z,100070.44
2024-01-24T05:31:35.047Z,100076.94
2024-01-24T05:34:03.283Z,100082.94
2024-01-24T05:36:30.399Z,100093.78
2024-01-24T05:38:57.120Z,100095.63
2024-01-24T05:41:23.882Z,100090.19
2024-01-24T05:43:50.521Z,100085.22
2024-01-24T05:46:17.020Z,100085.50
2024-01-24T05:48:43.808Z,100084.44
2024-01-24T05:51:11.885Z,100081.13
2024-01-24T05:53:41.113Z,100088.66
2024-01-24T05:56:08.032Z,100082.09
2024-01-24T05:58:34.591Z,100118.25
2024-01-24T06:01:01.195Z,100082.94
2024-01-24T06:03:27.723Z,100082.09
2024-01-24T06:05:55.915Z,100102.91
2024-01-24T06:08:22.535Z,100116.66
2024-01-24T06:10:49.163Z,100121.38
2024-01-24T06:13:15.697Z,100138.94
2024-01-24T06:15:42.250Z,100149.13
2024-01-24T06:18:08.748Z,100152.78
2024-01-24T06:20:35.306Z,100138.94
2024-01-24T06:23:02.145Z,100154.84
2024-01-24T06:25:28.702Z,100154.84
2024-01-24T06:27:55.270Z,100151.50
2024-01-24T06:30:23.924Z,100134.59
2024-01-24T06:32:53.011Z,100163.13
2024-01-24T06:35:20.843Z,100149.13
2024-01-24T06:37:48.995Z,100157.44
2024-01-24T06:40:16.258Z,100167.53
2024-01-24T06:42:42.947Z,100169.25
2024-01-24T06:45:10.013Z,100181.25
2024-01-24T06:47:36.524Z,100183.03
2024-01-24T06:50:03.309Z,100182.53
2024-01-24T06:52:31.788Z,100187.97
2024-01-24T06:54:59.086Z,100177.53
2024-01-24T06:57:26.415Z,100170.84
2024-01-24T06:59:54.168Z,100181.47
2024-01-24T07:02:20.842Z,100182.47
2024-01-24T07:04:47.496Z,100171.84
2024-01-24T07:07:15.706Z,100172.81
2024-01-24T07:09:42.417Z,100179.31
2024-01-24T07:12:09.121Z,100174.63
2024-01-24T07:14:35.705Z,100196.16
2024-01-24T07:17:02.891Z,100179.97
2024-01-24T07:19:30.100Z,100191.94
2024-01-24T07:21:56.787Z,100196.09
2024-01-24T07:24:23.578Z,100210.66
2024-01-24T07:26:50.092Z,100219.22
2024-01-24T07:29:16.622Z,100189.03
2024-01-24T07:31:43.074Z,100190.88
2024-01-24T07:34:09.690Z,100186.94
2024-01-24T07:36:36.326Z,100188.53
2024-01-24T07:39:05.848Z,100211.03
2024-01-24T07:41:32.311Z,100225.63
2024-01-24T07:43:59.608Z,100221.41
2024-01-24T07:46:26.764Z,100205.28
2024-01-24T07:48:53.633Z,100238.25
2024-01-24T07:51:22.065Z,100208.72
2024-01-24T07:53:49.928Z,100235.88
2024-01-24T07:56:24.349Z,100256.41
2024-01-24T07:58:53.099Z,100238.25
2024-01-24T08:01:20.488Z,100261.84
2024-01-24T08:03:50.400Z,100259.97
2024-01-24T08:06:18.762Z,100263.44
2024-01-24T08:08:45.396Z,100254.56
2024-01-24T08:11:12.129Z,100259.28
2024-01-24T08:13:38.758Z,100265.19
2024-01-24T08:16:05.696Z,100282.81
2024-01-24T08:18:33.320Z,100273.47
2024-01-24T08:21:00.176Z,100277.88
2024-01-24T08:23:34.444Z,100295.31
2024-01-24T08:26:10.530Z,100299.44
2024-01-24T08:28:37.292Z,100288.50
2024-01-24T08:31:03.891Z,100294.91
2024-01-24T08:33:33.628Z,100307.09
2024-01-24T08:36:00.546Z,100308.97
2024-01-24T08:38:28.115Z,100319.91
2024-01-24T08:40:54.613Z,100320.31
2024-01-24T08:43:21.190Z,100312.03
2024-01-24T08:45:51.524Z,100307.88
2024-01-24T08:48:19.033Z,100332.28
2024-01-24T08:50:45.708Z,100320.31
2024-01-24T08:53:12.225Z,100320.31
2024-01-24T08:55:38.862Z,100321.09
2024-01-24T08:58:06.037Z,100345.50
2024-01-24T09:00:32.783Z,100314.00
2024-01-24T09:03:00.207Z,100323.16
2024-01-24T09:05:27.069Z,100324.44
2024-01-24T09:07:54.290Z,100340.19
2024-01-24T09:10:21.439Z,100335.25
2024-01-24T09:12:48.347Z,100340.19
2024-01-24T09:15:15.114Z,100347.75
2024-01-24T09:17:41.758Z,100349.22
2024-01-24T09:20:09.264Z,100362.22
2024-01-24T09:22:36.002Z,100370.47
2024-01-24T09:25:06.499Z,100361.41
2024-01-24T09:27:34.986Z,100360.06
2024-01-24T09:30:01.537Z,100343.22
2024-01-24T09:32:28.365Z,100365.06
2024-01-24T09:34:55.235Z,100383.66
2024-01-24T09:37:22.613Z,100357.22
2024-01-24T09:39:51.222Z,100375.31
2024-01-24T09:42:23.853Z,100392.50
2024-01-24T09:44:50.925Z,100401.84
2024-01-24T09:47:18.396Z,100388.25
2024-01-24T09:49:45.669Z,100384.94
2024-01-24T09:52:15.073Z,100379.50
2024-01-24T09:54:43.387Z,100373.22
2024-01-24T09:57:11.374Z,100385.72
2024-01-24T09:59:38.021Z,100382.88
2024-01-24T10:02:06.668Z,100387.78
2024-01-24T10:04:38.480Z,100370.66
2024-01-24T10:07:09.949Z,100389.56
2024-01-24T10:09:36.834Z,100370.22
2024-01-24T10:12:04.954Z,100368.88
2024-01-24T10:14:31.787Z,100391.50
2024-01-24T10:16:58.787Z,100400.16
2024-01-24T10:19:26.245Z,100392.09
2024-01-24T10:21:53.517Z,100386.72
2024-01-24T10:24:20.719Z,100396.03
2024-01-24T10:26:48.471Z,100360.81
2024-01-24T10:29:16.028Z,100376.91
2024-01-24T10:31:43.207Z,100361.59
2024-01-24T10:34:10.521Z,100375.94
2024-01-24T10:36:43.476Z,100397.50
2024-01-24T10:39:15.407Z,100401.31
2024-01-24T10:41:44.951Z,100396.53
2024-01-24T10:44:16.407Z,100422.97
2024-01-24T10:46:43.912Z,100403.09
2024-01-24T10:49:13.738Z,100394.03
2024-01-24T10:51:41.155Z,100401.31
2024-01-24T10:54:09.174Z,100425.84
2024-01-24T10:56:37.294Z,100412.38
2024-01-24T10:59:07.195Z,100406.72
2024-01-24T11:01:34.306Z,100409.22
2024-01-24T11:04:07.682Z,100421.44
2024-01-24T11:06:42.936Z,100426.31
2024-01-24T11:09:35.913Z,100435.81
2024-01-24T11:12:03.257Z,100429.06
2024-01-24T11:14:30.860Z,100434.59
2024-01-24T11:17:02.455Z,100444.38
2024-01-24T11:19:30.032Z,100436.94
2024-01-24T11:22:13.401Z,100443.59
2024-01-24T11:24:47.266Z,100459.78
2024-01-24T11:27:37.257Z,100444.38
2024-01-24T11:30:39.479Z,100469.47
2024-01-24T11:33:06.356Z,100463.56
2024-01-24T11:35:43.095Z,100459.13
2024-01-24T11:38:25.727Z,100449.78
2024-01-24T11:41:23.958Z,100468.16
2024-01-24T11:43:50.698Z,100467.88
2024-01-24T11:46:19.755Z,100470.72
2024-01-24T11:48:46.565Z,100468.16
2024-01-24T11:51:15.872Z,100477.72
2024-01-24T11:53:42.638Z,100473.09
2024-01-24T11:56:17.017Z,100479.00
2024-01-24T11:58:43.620Z,100492.00
2024-01-24T12:01:14.533Z,100481.06
2024-01-24T12:03:48.266Z,100494.34
2024-01-24T12:06:15.079Z,100495.50
2024-01-24T12:08:45.651Z,100512.44
2024-01-24T12:11:12.240Z,100496.41
2024-01-24T12:13:39.172Z,100511.63
2024-01-24T12:16:10.098Z,100511.63
2024-01-24T12:18:37.703Z,100525.59
2024-01-24T12:21:09.425Z,100540.16
2024-01-24T12:23:36.203Z,100544.28
2024-01-24T12:26:03.626Z,100530.09
2024-01-24T12:28:30.977Z,100540.63
2024-01-24T12:30:58.855Z,100549.38
2024-01-24T12:33:25.821Z,100549.09
2024-01-24T12:35:52.626Z,100544.63
2024-01-24T12:38:19.705Z,100568.06
2024-01-24T12:40:53.802Z,100557.94
2024-01-24T12:43:23.662Z,100567.25
2024-01-24T12:45:51.779Z,100571.59
2024-01-24T12:48:19.865Z,100574.75
2024-01-24T12:50:50.331Z,100564.13
2024-01-24T12:53:17.685Z,100592.16
2024-01-24T12:55:44.566Z,100577.59
2024-01-24T12:58:11.289Z,100599.13
2024-01-24T13:00:38.197Z,100601.66
2024-01-24T13:03:06.818Z,100616.22
2024-01-24T13:05:42.889Z,100609.44
2024-01-24T13:08:15.129Z,100631.78
2024-01-24T13:10:44.088Z,100620.06
2024-01-24T13:13:11.427Z,100615.63
2024-01-24T13:15:42.396Z,100607.41
2024-01-24T13:18:13.166Z,100616.88
2024-01-24T13:20:41.302Z,100602.56
2024-01-24T13:23:07.924Z,100630.22
2024-01-24T13:25:34.622Z,100643.22
2024-01-24T13:28:03.743Z,100652.41
2024-01-24T13:30:30.693Z,100653.66
2024-01-24T13:32:57.631Z,100639.91
2024-01-24T13:35:24.457Z,100658.44
2024-01-24T13:37:51.358Z,100669.16
2024-01-24T13:40:19.350Z,100672.50
2024-01-24T13:42:46.310Z,100685.69
2024-01-24T13:45:13.132Z,100693.28
2024-01-24T13:47:39.898Z,100666.59
2024-01-24T13:50:07.081Z,100678.75
2024-01-24T13:52:33.924Z,100693.59
2024-01-24T13:55:00.710Z,100691.69
2024-01-24T13:57:27.304Z,100708.34
2024-01-24T13:59:53.993Z,100712.94
2024-01-24T14:02:20.570Z,100706.59
2024-01-24T14:04:47.311Z,100707.38
2024-01-24T14:07:14.068Z,100710.09
2024-01-24T14:09:41.059Z,100729.56
2024-01-24T14:12:09.433Z,100745.72
2024-01-24T14:14:36.435Z,100740.50
2024-01-24T14:17:03.004Z,100729.72
2024-01-24T14:19:29.664Z,100726.41
2024-01-24T14:21:56.837Z,100740.16
2024-01-24T14:24:23.413Z,100737.00
2024-01-24T14:26:50.082Z,100748.41
2024-01-24T14:29:16.629Z,100758.88
2024-01-24T14:31:43.494Z,100748.13
2024-01-24T14:34:10.324Z,100763.94
2024-01-24T14:36:37.730Z,100761.25
2024-01-24T14:39:07.447Z,100754.28
2024-01-24T14:41:34.227Z,100750.50
2024-01-24T14:44:00.834Z,100766.19
2024-01-24T14:46:27.386Z,100760.66
2024-01-24T14:48:54.053Z,100780.44
2024-01-24T14:51:21.119Z,100788.34
2024-01-24T14:53:47.887Z,100780.13
2024-01-24T14:56:14.420Z,100800.06
2024-01-24T14:58:41.970Z,100801.03
2024-01-24T15:01:09.442Z,100815.28
2024-01-24T15:03:37.172Z,100812.91
2024-01-24T15:06:04.256Z,100809.25
2024-01-24T15:08:30.927Z,100817.34
2024-01-24T15:10:57.700Z,100828.28
2024-01-24T15:13:24.176Z,100824.78
2024-01-24T15:15:51.763Z,100833.81
2024-01-24T15:18:20.443Z,100820.97
2024-01-24T15:20:54.176Z,100833.97
2024-01-24T15:23:30.099Z,100872.28
2024-01-24T15:25:57.481Z,100851.84
2024-01-24T15:28:24.075Z,100869.44
2024-01-24T15:30:50.968Z,100877.34
2024-01-24T15:33:19.298Z,100879.69
2024-01-24T15:35:46.781Z,100873.06
2024-01-24T15:38:13.813Z,100871.63
2024-01-24T15:40:40.345Z,100879.88
2024-01-24T15:43:09.911Z,100898.41
2024-01-24T15:45:37.253Z,100895.06
2024-01-24T15:48:04.721Z,100892.69
2024-01-24T15:50:31.535Z,100911.22
2024-01-24T15:52:58.189Z,100907.72
2024-01-24T15:55:24.850Z,100899.19
2024-01-24T15:57:52.008Z,100902.84
2024-01-24T16:00:20.896Z,100923.09
2024-01-24T16:02:47.662Z,100920.72
2024-01-24T16:05:36.036Z,100933.38
2024-01-24T16:08:05.495Z,100952.84
2024-01-24T16:10:32.006Z,100962.03
2024-01-24T16:12:58.681Z,100952.53
2024-01-24T16:15:25.601Z,100938.28
2024-01-24T16:17:52.599Z,100937.97
2024-01-24T16:20:19.195Z,100945.09
2024-01-24T16:22:54.297Z,100958.25
2024-01-24T16:25:26.408Z,100953.63
2024-01-24T16:27:54.339Z,100939.84
2024-01-24T16:30:21.389Z,100946.31
2024-01-24T16:32:52.811Z,100978.63
2024-01-24T16:35:19.856Z,100987.22
2024-01-24T16:37:46.532Z,100984.03
2024-01-24T16:40:13.723Z,100990.22
2024-01-24T16:42:40.958Z,100993.84
2024-01-24T16:45:09.833Z,101013.31
2024-01-24T16:47:36.569Z,100994.94
2024-01-24T16:50:03.494Z,100996.66
2024-01-24T16:52:30.013Z,101007.78
2024-01-24T16:54:56.613Z,101011.88
2024-01-24T16:57:23.192Z,101012.53
2024-01-24T16:59:51.610Z,101035.16
2024-01-24T17:02:18.133Z,101020.44
2024-01-24T17:04:46.415Z,101038.16
2024-01-24T17:07:13.447Z,101017.59
2024-01-24T17:09:41.005Z,101037.84
2024-01-24T17:12:11.061Z,101053.38
2024-01-24T17:14:39.081Z,101047.00
2024-01-24T17:17:08.210Z,101058.41
2024-01-24T17:19:35.050Z,101066.66
2024-01-24T17:22:02.440Z,101069.81
2024-01-24T17:24:28.993Z,101092.47
2024-01-24T17:26:55.497Z,101081.22
2024-01-24T17:29:22.082Z,101104.66
2024-01-24T17:31:48.798Z,101066.94
2024-01-24T17:34:16.410Z,101099.25
2024-01-24T17:36:43.153Z,101093.88
2024-01-24T17:39:10.352Z,101096.06
2024-01-24T17:41:37.109Z,101101.16
2024-01-24T17:44:04.776Z,101101.44
2024-01-24T17:46:31.348Z,101112.69
2024-01-24T17:48:57.973Z,101123.63
2024-01-24T17:51:24.696Z,101117.94
2024-01-24T17:53:51.508Z,101121.72
2024-01-24T17:56:21.246Z,101134.25
2024-01-24T17:58:50.376Z,101124.56
2024-01-24T18:01:19.227Z,101137.56
2024-01-24T18:03:45.951Z,101157.03
2024-01-24T18:06:13.490Z,101137.56
2024-01-24T18:08:40.521Z,101150.22
2024-01-24T18:11:06.998Z,101159.53
2024-01-24T18:13:33.630Z,101159.03
2024-01-24T18:16:00.357Z,101151.00
2024-01-24T18:18:27.531Z,101169.69
2024-01-24T18:20:54.871Z,101168.56
2024-01-24T18:23:21.561Z,101178.38
2024-01-24T18:25:49.271Z,101174.25
2024-01-24T18:28:17.690Z,101166.16
2024-01-24T18:30:44.430Z,101167.25
2024-01-24T18:33:13.596Z,101178.38
2024-01-24T18:35:40.117Z,101186.47
2024-01-24T18:38:06.632Z,101188.94
2024-01-24T18:40:33.293Z,101194.19
2024-01-24T18:43:02.165Z,101193.88
2024-01-24T18:45:29.016Z,101200.50
2024-01-24T18:47:55.865Z,101198.94
2024-01-24T18:50:22.774Z,101192.84
2024-01-24T18:52:49.488Z,101240.75
2024-01-24T18:55:17.495Z,101229.81
2024-01-24T18:57:47.910Z,101231.69
2024-01-24T19:00:14.831Z,101231.53
2024-01-24T19:02:41.561Z,101221.72
2024-01-24T19:05:13.894Z,101222.50
2024-01-24T19:07:45.825Z,101250.22
2024-01-24T19:10:13.022Z,101240.66
2024-01-24T19:12:39.716Z,101251.91
2024-01-24T19:15:07.201Z,101255.91
2024-01-24T19:17:34.078Z,101242.25
2024-01-24T19:20:01.017Z,101231.31
2024-01-24T19:22:27.828Z,101238.28
2024-01-24T19:24:54.729Z,101275.84
2024-01-24T19:27:22.273Z,101255.38
2024-01-24T19:29:48.849Z,101258.00
2024-01-24T19:32:15.643Z,101245.50
2024-01-24T19:35:01.891Z,101269.16
2024-01-24T19:37:28.554Z,101259.34
2024-01-24T19:39:55.848Z,101276.78
2024-01-24T19:42:27.478Z,101272.31
2024-01-24T19:44:54.434Z,101278.81
2024-01-24T19:47:21.725Z,101283.72
2024-01-24T19:49:49.176Z,101283.03
2024-01-24T19:52:15.807Z,101302.66
2024-01-24T19:54:42.627Z,101284.66
2024-01-24T19:57:09.243Z,101257.94
2024-01-24T19:59:36.102Z,101274.44
2024-01-24T20:02:03.617Z,101301.28
2024-01-24T20:04:30.821Z,101290.66
2024-01-24T20:06:58.002Z,101298.88
2024-01-24T20:09:25.379Z,101296.03
2024-01-24T20:11:51.957Z,101280.19
2024-01-24T20:14:18.406Z,101301.41
2024-01-24T20:16:45.256Z,101299.34
2024-01-24T20:19:11.887Z,101283.03
2024-01-24T20:21:41.988Z,101292.88
2024-01-24T20:24:12.941Z,101304.41
2024-01-24T20:26:39.717Z,101305.84
2024-01-24T20:29:08.363Z,101308.34
2024-01-24T20:31:34.990Z,101301.88
2024-01-24T20:34:02.828Z,101316.13
2024-01-24T20:36:29.574Z,101307.34
2024-01-24T20:38:56.996Z,101304.03
2024-01-24T20:41:24.893Z,101319.41
2024-01-24T20:43:52.670Z,101321.50
2024-01-24T20:46:19.504Z,101326.72
2024-01-24T20:48:46.185Z,101323.19
2024-01-24T20:51:13.072Z,101334.91
2024-01-24T20:53:39.573Z,101318.63
2024-01-24T20:56:06.514Z,101318.09
2024-01-24T20:58:34.435Z,101335.50
2024-01-24T21:01:02.338Z,101344.38
2024-01-24T21:03:29.336Z,101335.03
2024-01-24T21:05:56.574Z,101337.44
2024-01-24T21:08:24.655Z,101294.09
2024-01-24T21:10:55.892Z,101335.84
2024-01-24T21:13:29.320Z,101351.69
2024-01-24T21:15:56.145Z,101366.03
2024-01-24T21:18:23.413Z,101354.88
2024-01-24T21:20:50.680Z,101354.44
2024-01-24T21:23:17.802Z,101362.63
2024-01-24T21:25:44.376Z,101366.19
2024-01-24T21:28:10.931Z,101360.81
2024-01-24T21:30:37.591Z,101364.78
2024-01-24T21:33:04.313Z,101371.75
2024-01-24T21:35:30.894Z,101368.06
2024-01-24T21:37:57.900Z,101369.94
2024-01-24T21:40:24.401Z,101367.19
2024-01-24T21:42:51.511Z,101382.00
2024-01-24T21:45:18.297Z,101374.28
2024-01-24T21:47:45.240Z,101385.28
2024-01-24T21:50:12.634Z,101383.25
2024-01-24T21:52:39.249Z,101384.19
2024-01-24T21:55:07.531Z,101373.13
2024-01-24T21:57:34.292Z,101398.50
2024-01-24T22:00:01.868Z,101384.72
2024-01-24T22:02:31.546Z,101381.44
2024-01-24T22:04:58.110Z,101392.03
2024-01-24T22:07:24.886Z,101379.03
2024-01-24T22:09:53.301Z,101397.72
2024-01-24T22:12:20.127Z,101392.94
2024-01-24T22:14:46.718Z,101400.25
2024-01-24T22:17:13.229Z,101374.28
2024-01-24T22:19:40.315Z,101393.28
2024-01-24T22:22:06.832Z,101401.03
2024-01-24T22:24:33.406Z,101380.78
2024-01-24T22:27:00.398Z,101400.38
2024-01-24T22:29:27.096Z,101391.13
2024-01-24T22:31:53.808Z,101387.84
2024-01-24T22:34:20.973Z,101408.69
2024-01-24T22:36:47.834Z,101388.31
2024-01-24T22:39:14.400Z,101390.00
2024-01-24T22:41:42.580Z,101402.19
2024-01-24T22:44:11.010Z,101405.50
2024-01-24T22:46:43.634Z,101411.66
2024-01-24T22:49:11.465Z,101409.25
2024-01-24T22:51:39.200Z,101413.00
2024-01-24T22:54:07.340Z,101410.38
2024-01-24T22:56:33.925Z,101407.19
2024-01-24T22:59:00.602Z,101412.75
2024-01-24T23:01:28.788Z,101395.25
2024-01-24T23:03:55.596Z,101441.69
2024-01-24T23:06:22.189Z,101428.59
2024-01-24T23:08:48.675Z,101442.72
2024-01-24T23:11:15.230Z,101450.03
2024-01-24T23:13:41.815Z,101441.59
2024-01-24T23:16:09.188Z,101455.25
2024-01-24T23:18:36.066Z,101448.88
2024-01-24T23:21:02.596Z,101465.16
2024-01-24T23:23:29.080Z,101462.31
2024-01-24T23:25:55.600Z,101451.03
2024-01-24T23:28:22.312Z,101457.19
2024-01-24T23:30:49.053Z,101453.09
2024-01-24T23:33:15.658Z,101460.38
2024-01-24T23:35:42.998Z,101476.34
2024-01-24T23:38:09.542Z,101463.78
2024-01-24T23:40:36.090Z,101474.28
2024-01-24T23:43:02.706Z,101466.19
2024-01-24T23:45:29.427Z,101457.41
2024-01-24T23:47:56.117Z,101458.22
2024-01-24T23:50:23.042Z,101467.88
2024-01-24T23:52:49.998Z,101438.75
2024-01-24T23:55:16.756Z,101467.53
2024-01-24T23:57:43.374Z,101465.94
